Eddyville, Iowa
Current Conditions -  °F | °C
As of 7:15 PM on Thursday 27 Nov 2014 (Local Time) from KOOA Reporting Station
Overcast Overcast  
Wind Chill:   Ceiling: 6500
Heat Index:   Visibility: 10mi
Dew Point:   Wind: 3mph
Humidity: 77%   Direction: 150°SSE
Pressure: 30.41"   Gusts: NA
Location:  41.16°N, 92.63°W
Report Text: KOOA 280115Z AUTO 15003KT 10SM BKN065 OVC070 M13/M17 A3041 RMK AO2 T11351168
Loading
Personal Weather Stations






























Interactive Weather Map New forecast layout! Learn more

10-Day Weather Forecast

Advertisements
Track Severe Weather on mobile